Aérodrome :
LOGIN :

S'inscrire | Disclaimer

   EN    FR    IT 

 










Légende :    VFR   VFR Marginal   IFR   IFR Intensif   IFR Très Intensif
Visi : 
Plafond : 
>= 8 km
>= 3000ft
5 à 8 km
1000 à 3000 ft
1500m à 5 km
500 à 1000 ft
800 à 1500m
200 à 500 ft
< 800m
< 200 ft
Symboles :   Orages  Brouillard  Fortes neiges  Fortes précipitations  Vent > 20 kt
SIGMETs :   Divers  Orages  Givrage  Turbulence  Onde Orograph.  Cendres Volcan.






- Altitude de l'aérodrome : 1 ft


EGCK - Caernarfon

DERNIER METAR :
  • 210520Z AUTO 04004KT 340V110 9999 NCD 06/M00 Q1001

METARs EXPIRÉS :
  • 210450Z AUTO 07006KT 350V150 9999 NCD 07/M00 Q1001
  • 210420Z AUTO VRB03KT 9999 NCD 07/M01 Q1001
  • 210350Z AUTO VRB04KT 9999 NCD 07/M00 Q1001
  • 210320Z AUTO 06005KT 350V150 9999 NCD 07/M00 Q1001
  • 210250Z AUTO 08009KT 050V120 9999 NCD 07/00 Q1001

TAF TAF EGCK
Valide du 21 à 06h jusqu'au 21 à 15h UTC


210458Z 2106/2115 07009KT 9999 FEW035
TEMPO 2106/2112 13018G28KT
PROB30
TEMPO 2106/2115 BKN012



MET'MAP, la Météo Aéronautique d'un coup d'oeil ! - Copyright ORBIFLY Décembre 2007 - Disclaimer

ORBIFLY MET'MAP TEAM :

Programmation & Développement : Alexandra Zaïnal
Conception & Développement : Baudouin d'Aumeries
Co-Programmation & Développement : Marc-Olivier Méhu
Soutien technique & logistique : Manuel Goepfert

Contact : metmap@orbifly.com




SOURCES & CREDITS :

   NOAA